Time;durP1;ratioP1;P1;durP2;ratioP2;P2;SDS_P1;SDS_P2;PMS_P1;PMS_P2;Temp;Humidity;BMP_temperature;BMP_pressure;BME280_temperature;BME280_humidity;BME280_pressure;Samples;Min_cycle;Max_cycle;Signal;HPM_P1;HPM_P2
2023/02/05 00:04:18;;;;;;;6.80;3.50;;;;;;;;;;10499732;28;20036;-78
2023/02/05 00:09:30;;;;;;;8.17;3.40;;;;;;;;;;10507013;28;20074;-77
2023/02/05 00:14:42;;;;;;;7.93;3.63;;;;;;;;;;10542492;27;20040;-78
2023/02/05 00:20:05;;;;;;;7.77;3.40;;;;;;;;;;10537680;27;20048;-78
2023/02/05 00:25:11;;;;;;;18.40;5.37;;;;;;;;;;10520842;28;20032;-79
2023/02/05 00:30:21;;;;;;;7.07;2.80;;;;;;;;;;10500285;28;20071;-79
2023/02/05 00:35:28;;;;;;;;;;;;;;;;;;10525409;28;20040;-78
2023/02/05 00:40:39;;;;;;;7.67;3.40;;;;;;;;;;10523904;28;19924;-78
2023/02/05 00:45:53;;;;;;;8.53;3.33;;;;;;;;;;10522720;28;20036;-78
2023/02/05 00:50:58;;;;;;;8.63;3.70;;;;;;;;;;10530338;28;20351;-78
2023/02/05 00:56:08;;;;;;;7.07;3.87;;;;;;;;;;10523799;28;20032;-78
2023/02/05 01:01:27;;;;;;;8.50;3.70;;;;;;;;;;10525120;28;20063;-79
2023/02/05 01:06:33;;;;;;;7.93;3.70;;;;;;;;;;10525385;28;20092;-79
2023/02/05 01:11:55;;;;;;;6.10;2.87;;;;;;;;;;10494655;28;20129;-80
2023/02/05 01:17:02;;;;;;;8.87;3.73;;;;;;;;;;10518773;28;20058;-77
2023/02/05 01:22:10;;;;;;;6.83;3.10;;;;;;;;;;10504996;28;20044;-79
2023/02/05 01:27:16;;;;;;;7.37;3.40;;;;;;;;;;10525757;28;20682;-78
2023/02/05 01:44:02;;;;;;;6.77;3.00;;;;;;;;;;10512209;28;20055;-78
2023/02/05 01:49:38;;;;;;;5.73;2.73;;;;;;;;;;10574678;27;21326;-77
2023/02/05 01:54:43;;;;;;;5.87;2.73;;;;;;;;;;10532930;28;20091;-79
2023/02/05 01:59:46;;;;;;;5.27;2.70;;;;;;;;;;10527700;28;20369;-78
2023/02/05 02:04:53;;;;;;;8.27;2.77;;;;;;;;;;10532715;28;20055;-78
2023/02/05 02:09:56;;;;;;;5.83;2.60;;;;;;;;;;10535221;28;20098;-78
2023/02/05 02:15:02;;;;;;;5.10;2.07;;;;;;;;;;10531301;28;20155;-79
2023/02/05 02:20:08;;;;;;;8.57;2.70;;;;;;;;;;10526820;28;20500;-79
2023/02/05 02:25:21;;;;;;;5.90;1.97;;;;;;;;;;10522833;28;20032;-79
2023/02/05 02:30:26;;;;;;;3.63;2.25;;;;;;;;;;10528305;28;20052;-79
2023/02/05 02:35:32;;;;;;;1.57;1.47;;;;;;;;;;10514009;28;20469;-79
2023/02/05 02:40:37;;;;;;;2.80;1.63;;;;;;;;;;10530539;28;20116;-79
2023/02/05 02:45:45;;;;;;;6.07;2.40;;;;;;;;;;10528948;28;20040;-79
2023/02/05 02:50:50;;;;;;;2.07;1.40;;;;;;;;;;10528080;28;20328;-79
2023/02/05 02:55:54;;;;;;;4.10;2.07;;;;;;;;;;10536639;28;20044;-79
2023/02/05 03:00:59;;;;;;;6.20;2.70;;;;;;;;;;10515359;28;20073;-78
2023/02/05 03:06:03;;;;;;;4.97;1.83;;;;;;;;;;10501718;28;20142;-78
2023/02/05 03:11:08;;;;;;;6.47;2.70;;;;;;;;;;10514322;28;20040;-78
2023/02/05 03:16:12;;;;;;;7.53;3.10;;;;;;;;;;10500555;28;20055;-78
2023/02/05 03:21:15;;;;;;;;;;;;;;;;;;10499100;28;20047;-81
2023/02/05 03:26:24;;;;;;;0.53;0.30;;;;;;;;;;10501867;28;19920;-78
2023/02/05 03:31:33;;;;;;;3.87;1.83;;;;;;;;;;10508318;28;20047;-77
2023/02/05 03:36:42;;;;;;;5.13;2.40;;;;;;;;;;10496322;28;20036;-80
2023/02/05 03:41:55;;;;;;;0.53;0.40;;;;;;;;;;10499310;28;20678;-79
2023/02/05 03:47:02;;;;;;;2.90;1.97;;;;;;;;;;10508221;28;20055;-77
2023/02/05 03:52:07;;;;;;;5.93;2.50;;;;;;;;;;10497679;28;20047;-78
2023/02/05 03:57:16;;;;;;;6.17;2.63;;;;;;;;;;10493283;28;20129;-78
2023/02/05 04:02:21;;;;;;;4.87;2.47;;;;;;;;;;10499048;28;20036;-80
2023/02/05 04:07:24;;;;;;;8.00;2.77;;;;;;;;;;10502131;28;20496;-80
2023/02/05 04:12:27;;;;;;;6.77;2.40;;;;;;;;;;10501813;28;20113;-81
2023/02/05 04:17:31;;;;;;;5.90;2.47;;;;;;;;;;10514030;28;20040;-80
2023/02/05 04:22:34;;;;;;;5.88;2.50;;;;;;;;;;10493045;28;20113;-81
2023/02/05 04:27:36;;;;;;;8.03;3.00;;;;;;;;;;10486838;28;20548;-81
2023/02/05 04:32:41;;;;;;;6.17;3.30;;;;;;;;;;10494917;28;20040;-77
2023/02/05 04:37:43;;;;;;;5.07;2.43;;;;;;;;;;10496792;28;20036;-78
2023/02/05 04:42:46;;;;;;;7.07;3.43;;;;;;;;;;10494998;28;20047;-77
2023/02/05 04:47:49;;;;;;;6.30;3.23;;;;;;;;;;10501522;28;20059;-78
2023/02/05 04:52:52;;;;;;;5.40;3.08;;;;;;;;;;10498259;28;20048;-77
2023/02/05 04:57:55;;;;;;;5.20;2.80;;;;;;;;;;10501390;28;20070;-79
2023/02/05 05:02:59;;;;;;;4.07;2.50;;;;;;;;;;10495358;28;20040;-77
2023/02/05 05:08:01;;;;;;;1.48;1.17;;;;;;;;;;10490065;28;20059;-78
2023/02/05 05:13:04;;;;;;;5.13;2.17;;;;;;;;;;10494629;28;20052;-77
2023/02/05 05:18:08;;;;;;;5.80;2.23;;;;;;;;;;10495356;28;20098;-76
2023/02/05 05:23:10;;;;;;;7.60;3.53;;;;;;;;;;10497486;28;20155;-77
2023/02/05 05:28:13;;;;;;;6.97;3.20;;;;;;;;;;10497205;28;20056;-77
2023/02/05 05:33:17;;;;;;;7.20;3.00;;;;;;;;;;10504591;28;20466;-77
2023/02/05 05:38:19;;;;;;;2.63;1.27;;;;;;;;;;10491545;28;20036;-78
2023/02/05 05:48:43;;;;;;;1.50;1.30;;;;;;;;;;10493182;28;20048;-76
2023/02/05 05:53:46;;;;;;;5.05;2.40;;;;;;;;;;10490470;28;20037;-76
2023/02/05 05:58:49;;;;;;;5.57;2.50;;;;;;;;;;10487879;28;20069;-77
2023/02/05 06:03:53;;;;;;;6.00;2.57;;;;;;;;;;10493964;28;20100;-78
2023/02/05 06:08:55;;;;;;;5.45;2.50;;;;;;;;;;10486737;28;20036;-77
2023/02/05 06:13:58;;;;;;;7.50;3.17;;;;;;;;;;10500622;28;20056;-77
2023/02/05 06:19:02;;;;;;;8.03;2.90;;;;;;;;;;10502551;28;20068;-76
2023/02/05 06:24:04;;;;;;;3.63;1.73;;;;;;;;;;10493479;28;20037;-79
2023/02/05 06:29:07;;;;;;;2.93;1.87;;;;;;;;;;10503062;28;20119;-78
2023/02/05 06:34:11;;;;;;;3.00;1.33;;;;;;;;;;10519708;28;20109;-81
2023/02/05 06:39:13;;;;;;;5.97;2.08;;;;;;;;;;10503270;28;20048;-80
2023/02/05 06:44:16;;;;;;;4.80;2.53;;;;;;;;;;10503673;28;20562;-81
2023/02/05 06:49:20;;;;;;;0.83;0.83;;;;;;;;;;10501878;28;20043;-81
2023/02/05 06:54:23;;;;;;;;;;;;;;;;;;10510327;28;20036;-77
2023/02/05 06:59:25;;;;;;;2.37;1.30;;;;;;;;;;10497592;28;20255;-77
2023/02/05 07:04:30;;;;;;;5.30;2.53;;;;;;;;;;10501012;28;20047;-77
2023/02/05 07:09:33;;;;;;;6.33;2.60;;;;;;;;;;10513888;28;20051;-77
2023/02/05 07:14:36;;;;;;;6.60;2.67;;;;;;;;;;10515557;28;20524;-77
2023/02/05 07:19:40;;;;;;;8.10;3.30;;;;;;;;;;10505364;28;20053;-78
2023/02/05 07:24:43;;;;;;;6.25;3.05;;;;;;;;;;10510944;28;20309;-79
2023/02/05 07:29:45;;;;;;;8.82;3.58;;;;;;;;;;10508698;28;20055;-79
2023/02/05 07:34:49;;;;;;;8.55;3.75;;;;;;;;;;10520324;28;20032;-77
2023/02/05 07:39:52;;;;;;;7.00;4.40;;;;;;;;;;10505555;28;20102;-79
2023/02/05 07:44:54;;;;;;;5.93;3.80;;;;;;;;;;10510449;28;20111;-78
2023/02/05 07:49:58;;;;;;;8.02;4.75;;;;;;;;;;10517237;28;20170;-78
2023/02/05 07:55:00;;;;;;;6.75;4.15;;;;;;;;;;10507844;28;20523;-78
2023/02/05 08:00:03;;;;;;;6.60;3.80;;;;;;;;;;10503493;28;20095;-78
2023/02/05 08:05:08;;;;;;;5.22;3.38;;;;;;;;;;10509597;28;20051;-79
2023/02/05 08:10:13;;;;;;;8.38;4.47;;;;;;;;;;10510442;28;20046;-78
2023/02/05 08:15:15;;;;;;;8.02;4.80;;;;;;;;;;10507091;28;20036;-78
2023/02/05 08:20:19;;;;;;;12.10;6.75;;;;;;;;;;10501600;28;20028;-79
2023/02/05 08:25:22;;;;;;;6.47;4.50;;;;;;;;;;10513676;28;20079;-79
2023/02/05 08:30:24;;;;;;;5.57;3.88;;;;;;;;;;10506545;28;20081;-77
2023/02/05 08:35:28;;;;;;;5.07;3.70;;;;;;;;;;10511069;28;20047;-78
2023/02/05 08:40:31;;;;;;;4.68;3.42;;;;;;;;;;10505407;28;20040;-79
2023/02/05 08:45:33;;;;;;;4.43;3.17;;;;;;;;;;10506021;28;20075;-79
2023/02/05 08:50:38;;;;;;;4.90;3.30;;;;;;;;;;10514811;28;20493;-78
2023/02/05 08:55:40;;;;;;;5.30;3.78;;;;;;;;;;10499511;28;20040;-78
2023/02/05 09:00:43;;;;;;;5.20;3.50;;;;;;;;;;10528772;28;20074;-79
2023/02/05 09:05:49;;;;;;;4.87;3.67;;;;;;;;;;10520706;28;20112;-77
2023/02/05 09:10:52;;;;;;;4.38;3.53;;;;;;;;;;10522931;28;20043;-79
2023/02/05 09:15:55;;;;;;;4.90;3.40;;;;;;;;;;10521523;28;20051;-78
2023/02/05 09:20:59;;;;;;;9.82;4.43;;;;;;;;;;10523214;28;20068;-78
2023/02/05 09:26:01;;;;;;;5.45;4.18;;;;;;;;;;10510320;28;20040;-79
2023/02/05 09:31:05;;;;;;;5.78;4.60;;;;;;;;;;10491430;28;20036;-76
2023/02/05 09:36:12;;;;;;;7.35;4.00;;;;;;;;;;10519685;28;20047;-78
2023/02/05 09:41:19;;;;;;;5.72;4.38;;;;;;;;;;10523341;28;20032;-78
2023/02/05 09:46:26;;;;;;;5.85;4.60;;;;;;;;;;10535177;28;20473;-78
2023/02/05 09:51:33;;;;;;;8.20;4.78;;;;;;;;;;10511923;28;20032;-77
2023/02/05 09:56:37;;;;;;;6.78;4.68;;;;;;;;;;10513958;28;20551;-78
2023/02/05 10:01:45;;;;;;;5.97;4.88;;;;;;;;;;10500804;28;20051;-76
2023/02/05 10:06:58;;;;;;;5.80;3.97;;;;;;;;;;10511866;28;20051;-79
2023/02/05 10:12:04;;;;;;;6.45;3.60;;;;;;;;;;10515628;28;20067;-78
2023/02/05 10:17:14;;;;;;;5.57;3.65;;;;;;;;;;10514476;28;20036;-78
2023/02/05 10:22:22;;;;;;;8.90;3.60;;;;;;;;;;10514611;28;20473;-78
2023/02/05 10:27:27;;;;;;;5.63;3.28;;;;;;;;;;10509632;28;20722;-78
2023/02/05 10:32:36;;;;;;;5.70;3.40;;;;;;;;;;10510347;28;20520;-79
2023/02/05 10:37:43;;;;;;;4.03;2.55;;;;;;;;;;10517956;28;20488;-78
2023/02/05 10:42:47;;;;;;;5.03;2.95;;;;;;;;;;10500986;28;20055;-79
2023/02/05 10:47:56;;;;;;;5.57;2.83;;;;;;;;;;10505645;28;20613;-79
2023/02/05 10:53:00;;;;;;;8.23;2.83;;;;;;;;;;10509244;28;20039;-79
2023/02/05 11:03:35;;;;;;;10.75;5.20;;;;;;;;;;10506003;28;21064;-77
2023/02/05 11:08:40;;;;;;;7.13;3.55;;;;;;;;;;10499932;28;20052;-78
2023/02/05 11:13:48;;;;;;;6.97;3.40;;;;;;;;;;10493846;28;20094;-78
2023/02/05 11:18:58;;;;;;;6.25;2.75;;;;;;;;;;10492646;28;20047;-77
2023/02/05 11:24:02;;;;;;;7.85;3.03;;;;;;;;;;10498541;28;20048;-78
2023/02/05 11:29:04;;;;;;;;;;;;;;;;;;10512219;28;20036;-78
2023/02/05 11:34:10;;;;;;;8.43;1.98;;;;;;;;;;10495132;28;20032;-79
2023/02/05 11:39:20;;;;;;;7.00;1.90;;;;;;;;;;10511204;28;20067;-79
2023/02/05 11:44:24;;;;;;;5.75;2.20;;;;;;;;;;10518021;28;20075;-77
2023/02/05 11:49:31;;;;;;;5.20;1.88;;;;;;;;;;10508619;28;20056;-78
2023/02/05 11:54:36;;;;;;;8.45;2.30;;;;;;;;;;10497400;28;20040;-78
2023/02/05 11:59:39;;;;;;;6.72;2.45;;;;;;;;;;10490986;28;20048;-78
2023/02/05 12:04:47;;;;;;;8.60;2.93;;;;;;;;;;10498117;28;20063;-78
2023/02/05 12:09:58;;;;;;;10.90;2.95;;;;;;;;;;10501121;28;20047;-78
2023/02/05 12:15:03;;;;;;;11.48;3.08;;;;;;;;;;10497466;28;20071;-77
2023/02/05 12:20:14;;;;;;;6.85;1.77;;;;;;;;;;10502572;28;20043;-79
2023/02/05 12:25:23;;;;;;;10.80;2.22;;;;;;;;;;10505106;28;20399;-78
2023/02/05 12:30:31;;;;;;;8.30;2.22;;;;;;;;;;10494972;28;20452;-78
2023/02/05 12:35:43;;;;;;;6.90;2.65;;;;;;;;;;10494121;28;20044;-78
2023/02/05 12:40:56;;;;;;;7.97;2.38;;;;;;;;;;10495196;28;20041;-77
2023/02/05 12:46:03;;;;;;;4.97;2.22;;;;;;;;;;10503911;28;20066;-78
2023/02/05 12:51:11;;;;;;;10.35;2.90;;;;;;;;;;10494654;28;20036;-78
2023/02/05 12:56:25;;;;;;;8.20;2.22;;;;;;;;;;10502072;28;20055;-78
2023/02/05 13:01:33;;;;;;;8.55;2.72;;;;;;;;;;10510488;28;20040;-78
2023/02/05 13:06:37;;;;;;;9.77;2.78;;;;;;;;;;10495856;28;20113;-75
2023/02/05 13:11:42;;;;;;;10.20;3.50;;;;;;;;;;10498485;28;20052;-78
2023/02/05 13:16:48;;;;;;;3.60;0.70;;;;;;;;;;10502841;28;20063;-76
2023/02/05 13:32:40;;;;;;;8.95;2.28;;;;;;;;;;10492628;28;20384;-77
2023/02/05 13:37:47;;;;;;;9.07;2.35;;;;;;;;;;10503403;28;20098;-77
2023/02/05 13:43:14;;;;;;;10.73;3.03;;;;;;;;;;10505825;28;20048;-77
2023/02/05 13:48:31;;;;;;;9.80;2.80;;;;;;;;;;10483378;28;20535;-77
2023/02/05 13:53:45;;;;;;;7.65;2.47;;;;;;;;;;10481486;28;20052;-77
2023/02/05 13:58:49;;;;;;;7.03;2.20;;;;;;;;;;10483604;28;20032;-77
2023/02/05 14:03:55;;;;;;;11.32;2.90;;;;;;;;;;10494556;28;20056;-77
2023/02/05 14:09:04;;;;;;;10.50;3.20;;;;;;;;;;10503340;28;20050;-76
2023/02/05 14:14:23;;;;;;;9.93;3.25;;;;;;;;;;10497036;28;20070;-77
2023/02/05 14:19:51;;;;;;;12.15;3.83;;;;;;;;;;10486694;28;20036;-78
2023/02/05 14:24:55;;;;;;;10.10;3.33;;;;;;;;;;10503520;28;20041;-79
2023/02/05 14:30:17;;;;;;;11.60;4.22;;;;;;;;;;10531930;28;20051;-78
2023/02/05 14:35:37;;;;;;;7.32;3.15;;;;;;;;;;10502350;28;20048;-80
2023/02/05 14:41:09;;;;;;;14.63;3.72;;;;;;;;;;10506713;28;20406;-78
2023/02/05 14:46:46;;;;;;;7.55;3.05;;;;;;;;;;10500725;28;20094;-79
2023/02/05 14:52:13;;;;;;;15.07;3.80;;;;;;;;;;10509909;28;20040;-78
2023/02/05 14:57:23;;;;;;;14.57;4.47;;;;;;;;;;10508975;28;20489;-78
2023/02/05 15:08:43;;;;;;;4.45;1.52;;;;;;;;;;10499414;28;20090;-79
2023/02/05 15:14:11;;;;;;;3.80;2.58;;;;;;;;;;10517644;28;20416;-79
2023/02/05 15:19:17;;;;;;;9.05;3.03;;;;;;;;;;10515888;28;20056;-79
2023/02/05 15:24:21;;;;;;;17.70;7.22;;;;;;;;;;10509182;28;20056;-79
2023/02/05 15:29:25;;;;;;;10.75;3.60;;;;;;;;;;10509067;28;20061;-78
2023/02/05 15:34:32;;;;;;;8.52;3.10;;;;;;;;;;10496336;28;20044;-77
2023/02/05 15:39:37;;;;;;;7.18;2.25;;;;;;;;;;10507640;28;20036;-77
2023/02/05 15:44:41;;;;;;;17.40;3.30;;;;;;;;;;10500994;28;20033;-78
2023/02/05 15:49:46;;;;;;;21.65;5.10;;;;;;;;;;10499475;28;20062;-78
2023/02/05 15:54:49;;;;;;;9.80;3.78;;;;;;;;;;10502621;28;20043;-78
2023/02/05 15:59:53;;;;;;;16.00;4.90;;;;;;;;;;10506049;28;20041;-78
2023/02/05 16:04:57;;;;;;;17.25;5.45;;;;;;;;;;10498748;28;20102;-79
2023/02/05 16:10:03;;;;;;;10.18;3.72;;;;;;;;;;10487860;28;20047;-78
2023/02/05 16:15:06;;;;;;;12.38;4.05;;;;;;;;;;10505321;28;20121;-80
2023/02/05 16:20:19;;;;;;;9.25;3.80;;;;;;;;;;10503036;28;20454;-80
2023/02/05 16:25:28;;;;;;;9.77;4.00;;;;;;;;;;10500251;28;20163;-78
2023/02/05 16:30:34;;;;;;;9.48;3.63;;;;;;;;;;10510033;28;20058;-76
2023/02/05 16:35:40;;;;;;;10.33;4.13;;;;;;;;;;10504082;28;20044;-77
2023/02/05 16:40:44;;;;;;;12.68;4.50;;;;;;;;;;10500151;28;20041;-79
2023/02/05 16:46:17;;;;;;;11.77;4.47;;;;;;;;;;10511162;28;20048;-77
2023/02/05 16:51:32;;;;;;;11.73;4.53;;;;;;;;;;10376543;28;20048;-77
2023/02/05 16:56:35;;;;;;;12.60;4.88;;;;;;;;;;10504616;28;20138;-76
2023/02/05 17:01:39;;;;;;;11.57;5.00;;;;;;;;;;10517764;28;20039;-77
2023/02/05 17:06:43;;;;;;;11.63;5.07;;;;;;;;;;10509884;28;20054;-77
2023/02/05 17:11:46;;;;;;;17.13;6.00;;;;;;;;;;10507454;28;20036;-77
2023/02/05 17:16:54;;;;;;;13.40;5.33;;;;;;;;;;10500396;28;20075;-79
2023/02/05 17:22:20;;;;;;;11.63;4.83;;;;;;;;;;10509798;28;20165;-77
2023/02/05 17:27:27;;;;;;;7.57;3.60;;;;;;;;;;10476222;28;20052;-78
2023/02/05 17:32:31;;;;;;;4.43;2.57;;;;;;;;;;10501161;28;20036;-78
2023/02/05 17:37:33;;;;;;;14.25;4.63;;;;;;;;;;10503131;28;20435;-77
2023/02/05 17:42:37;;;;;;;9.40;2.97;;;;;;;;;;10501800;28;20071;-78
2023/02/05 17:47:40;;;;;;;15.98;5.47;;;;;;;;;;10498730;28;20476;-78
2023/02/05 17:52:43;;;;;;;10.27;5.18;;;;;;;;;;10494313;28;20040;-79
2023/02/05 17:57:47;;;;;;;14.37;5.83;;;;;;;;;;10491074;28;20052;-78
2023/02/05 18:02:50;;;;;;;17.80;6.20;;;;;;;;;;10496061;28;20043;-77
2023/02/05 18:07:55;;;;;;;13.40;5.53;;;;;;;;;;10502632;28;20055;-76
2023/02/05 18:12:59;;;;;;;9.00;4.57;;;;;;;;;;10507988;28;20048;-78
2023/02/05 18:18:02;;;;;;;15.40;6.53;;;;;;;;;;10505359;28;20105;-78
2023/02/05 18:28:31;;;;;;;14.27;6.00;;;;;;;;;;10503760;28;20139;-76
2023/02/05 18:33:34;;;;;;;16.73;5.53;;;;;;;;;;10509077;28;20110;-77
2023/02/05 18:38:36;;;;;;;10.13;3.27;;;;;;;;;;10499087;28;20097;-77
2023/02/05 18:43:41;;;;;;;9.67;3.47;;;;;;;;;;10510645;28;20032;-78
2023/02/05 18:48:44;;;;;;;8.30;3.42;;;;;;;;;;10512988;28;20047;-77
2023/02/05 18:53:47;;;;;;;11.20;5.37;;;;;;;;;;10486617;28;20046;-77
2023/02/05 18:58:52;;;;;;;12.87;4.33;;;;;;;;;;10499616;28;20036;-76
2023/02/05 19:03:56;;;;;;;6.03;2.77;;;;;;;;;;10507431;28;20118;-78
2023/02/05 19:09:01;;;;;;;8.30;4.20;;;;;;;;;;10518174;28;20477;-78
2023/02/05 19:14:06;;;;;;;14.70;5.27;;;;;;;;;;10523158;28;20049;-77
2023/02/05 19:19:10;;;;;;;16.57;6.50;;;;;;;;;;10515886;28;20040;-77
2023/02/05 19:24:13;;;;;;;21.80;6.57;;;;;;;;;;10511647;28;20041;-78
2023/02/05 19:29:18;;;;;;;14.83;5.30;;;;;;;;;;10513918;28;20489;-77
2023/02/05 19:34:22;;;;;;;20.00;5.50;;;;;;;;;;10492594;28;20040;-78
2023/02/05 19:39:24;;;;;;;9.68;3.88;;;;;;;;;;10501747;28;20043;-79
2023/02/05 19:44:30;;;;;;;18.40;7.77;;;;;;;;;;10502550;28;20060;-78
2023/02/05 19:49:33;;;;;;;15.07;6.00;;;;;;;;;;10513132;28;20054;-79
2023/02/05 19:54:35;;;;;;;17.23;6.53;;;;;;;;;;10509030;28;20440;-78
2023/02/05 19:59:39;;;;;;;15.67;6.40;;;;;;;;;;10509819;28;20074;-77
2023/02/05 20:04:42;;;;;;;23.52;6.07;;;;;;;;;;10498584;28;20028;-76
2023/02/05 20:09:45;;;;;;;16.73;7.30;;;;;;;;;;10503365;28;20040;-77
2023/02/05 20:14:48;;;;;;;17.57;8.07;;;;;;;;;;10509452;28;20417;-77
2023/02/05 20:19:52;;;;;;;18.67;6.93;;;;;;;;;;10495602;28;20101;-78
2023/02/05 20:25:07;;;;;;;20.63;7.10;;;;;;;;;;10498884;28;20082;-80
2023/02/05 20:35:34;;;;;;;9.37;4.00;;;;;;;;;;10494903;28;20423;-78
2023/02/05 20:40:37;;;;;;;9.85;3.88;;;;;;;;;;10498013;28;20045;-79
2023/02/05 20:45:41;;;;;;;11.63;5.07;;;;;;;;;;10492971;28;20113;-78
2023/02/05 20:50:43;;;;;;;10.18;4.45;;;;;;;;;;10500257;28;20151;-77
2023/02/05 20:55:46;;;;;;;13.00;4.57;;;;;;;;;;10496663;28;20048;-77
2023/02/05 21:00:50;;;;;;;12.00;4.67;;;;;;;;;;10502391;28;20110;-77
2023/02/05 21:05:56;;;;;;;11.70;4.20;;;;;;;;;;10490971;28;20040;-79
2023/02/05 21:10:59;;;;;;;10.73;5.00;;;;;;;;;;10511481;28;20052;-77
2023/02/05 21:16:03;;;;;;;16.63;5.10;;;;;;;;;;10496664;28;20059;-78
2023/02/05 21:21:08;;;;;;;15.33;5.30;;;;;;;;;;10494330;28;20044;-77
2023/02/05 21:26:17;;;;;;;10.40;4.15;;;;;;;;;;10494606;28;20048;-77
2023/02/05 21:31:21;;;;;;;16.37;6.17;;;;;;;;;;10506628;28;20488;-76
2023/02/05 21:36:24;;;;;;;11.07;4.80;;;;;;;;;;10506017;28;20120;-78
2023/02/05 21:41:27;;;;;;;15.50;6.03;;;;;;;;;;10518325;28;20072;-78
2023/02/05 21:46:31;;;;;;;19.07;6.50;;;;;;;;;;10490357;28;20040;-80
2023/02/05 21:51:34;;;;;;;16.05;6.20;;;;;;;;;;10504655;28;20036;-78
2023/02/05 21:56:38;;;;;;;13.37;5.87;;;;;;;;;;10513441;28;20408;-80
2023/02/05 22:01:42;;;;;;;11.43;5.20;;;;;;;;;;10516341;28;20056;-79
2023/02/05 22:06:44;;;;;;;11.87;5.20;;;;;;;;;;10521395;28;20043;-78
2023/02/05 22:11:48;;;;;;;10.30;4.30;;;;;;;;;;10480835;28;20798;-79
2023/02/05 22:16:53;;;;;;;8.80;3.58;;;;;;;;;;10503776;28;20040;-78
2023/02/05 22:21:56;;;;;;;12.17;5.03;;;;;;;;;;10502763;28;20040;-78
2023/02/05 22:26:58;;;;;;;10.40;4.40;;;;;;;;;;10501073;28;20041;-79
2023/02/05 22:32:02;;;;;;;10.43;4.33;;;;;;;;;;10521758;28;20411;-79
2023/02/05 22:37:04;;;;;;;9.55;4.30;;;;;;;;;;10492989;28;20370;-78
2023/02/05 22:42:07;;;;;;;9.73;4.10;;;;;;;;;;10492368;28;20040;-79
2023/02/05 22:47:11;;;;;;;8.57;4.07;;;;;;;;;;10512910;28;20059;-79
2023/02/05 22:52:14;;;;;;;9.95;4.10;;;;;;;;;;10501436;28;20094;-76
2023/02/05 22:57:16;;;;;;;6.93;3.57;;;;;;;;;;10498611;28;20075;-76
2023/02/05 23:02:20;;;;;;;6.63;2.73;;;;;;;;;;10501369;28;20035;-77
2023/02/05 23:07:23;;;;;;;9.70;4.22;;;;;;;;;;10513782;28;20036;-77
2023/02/05 23:12:25;;;;;;;17.47;7.23;;;;;;;;;;10498240;28;20044;-76
2023/02/05 23:17:29;;;;;;;10.53;4.13;;;;;;;;;;10507516;28;20048;-77
2023/02/05 23:22:31;;;;;;;9.68;4.20;;;;;;;;;;10500426;28;20126;-78
2023/02/05 23:27:35;;;;;;;11.90;5.00;;;;;;;;;;10508982;28;20054;-77
2023/02/05 23:32:39;;;;;;;9.80;4.07;;;;;;;;;;10508954;28;20126;-77
2023/02/05 23:37:41;;;;;;;14.95;4.82;;;;;;;;;;10500699;28;20033;-78
2023/02/05 23:42:44;;;;;;;9.70;3.33;;;;;;;;;;10504513;28;20051;-78
2023/02/05 23:47:48;;;;;;;13.33;5.00;;;;;;;;;;10491493;28;20056;-76
2023/02/05 23:52:50;;;;;;;13.57;5.25;;;;;;;;;;10503284;28;20097;-78
2023/02/05 23:57:53;;;;;;;12.57;5.50;;;;;;;;;;10501096;28;20052;-76
